Tiempo atmosférico en la estación meteorológica de Aragüés Del Puerto, Huesca (1120 m.)



Fecha
DESCASC
Temp. máxima en grados centígrados (hora)
DESCASC
Temp. mínima en grados centígrados (hora)
DESCASC
Temp. media en grados centígrados
DESCASC
Racha de viento máxima en m/sg (hora)
DESCASC
Velocidad máxima media en intervalos de 10 minutos(hora)
DESCASC
Precipitaciones diarias en mm
DESCASC
Precipitaciones de 00:00 a 06:00 en mm
DESCASC
Precipitaciones de 06:00 a 12:00 en mm
DESCASC
Precipitaciones de 12:00 a 18:00 en mm
DESCASC
Precipitaciones de 18:00 a 24:00 en mm
DESCASC
21-02-2019 16.1 (15:40) 2.7 (03:40) 9.4 7.22 (14:10) 5.28 (20:30) 0 0 0 0 0
20-02-2019 14.2 (15:30) 1.3 (07:40) 7.7 7.22 (22:10) 5.28 (22:30) 0 0 0 0 0
19-02-2019 14.2 (15:30) 2 (08:00) 8.1 7.22 (14:00) 4.72 (04:40) 0 0 0 0 0
18-02-2019 15.3 (15:30) 4.6 (07:50) 10 8.89 (15:30) 5.83 (16:10) 0 0 0 0 0
17-02-2019 16.2 (14:40) 6.1 (00:00) 11.2 12.22 (12:40) 5.83 (14:20) 0 0 0 0 0
16-02-2019 16 (14:30) 2.2 (00:00) 9.1 13.89 (15:20) 7.78 (14:10) 0 0 0 0 0
15-02-2019 17.2 (15:30) 3.5 (00:00) 10.4 7.78 (03:00) 5.56 (01:30) 0 0 0 0 0
14-02-2019 16 (15:00) 2.8 (00:00) 9.4 10.83 (12:40) 6.39 (12:50) 0 0 0 0 0
13-02-2019 14.8 (14:50) 0.7 (00:00) 7.8 6.94 (22:30) 5 (23:00) 0 0 0 0 0
12-02-2019 13.6 (16:30) -1.8 (-00:0) 5.9 5.83 (15:30) 3.61 (19:50) 0 0 0 0 0
11-02-2019 8.5 (12:20) 0.3 (00:00) 4.4 13.33 (21:10) 7.5 (21:10) 0 0 0 0 0
10-02-2019 6.8 (19:50) 2.1 (00:00) 4.5 9.44 (18:30) 5.83 (18:30) 2.2 0 1.6 0.6 0
09-02-2019 12.7 (15:30) 2.3 (00:00) 7.5 7.22 (22:00) 4.44 (21:30) 0 0 0 0 0
08-02-2019 14.8 (15:20) 0 (00:00) 7.4 7.22 (20:40) 4.72 (20:30) 0 0 0 0 0
07-02-2019 12.4 (14:10) 0.5 (00:00) 6.4 9.17 (14:30) 4.72 (17:30) 0 0 0 0 0
06-02-2019 14.8 (15:10) 1.6 (00:00) 8.2 7.22 (15:40) 3.61 (15:30) 0 0 0 0 0
05-02-2019 14.4 (14:50) 2.8 (00:00) 8.6 9.17 (15:00) 5 (16:00) 0 0 0 0 0
04-02-2019 9.2 (14:50) -4.9 (-00:0) 2.1 11.11 (01:50) 5.28 (02:20) 1.4 0 0 1.4 0
03-02-2019 0.1 (15:30) -2.8 (-00:0) -1.3 26.39 (11:30) 10.83 (10:40) 4.6 1.8 1 1.6 0.2
02-02-2019 1.5 (11:40) -2.5 (-00:0) -0.5 21.67 (23:20) 8.89 (23:40) 18.8 2.6 3 9.4 3.8
01-02-2019 7.6 (13:00) 0.5 (00:00) 4 12.22 (17:20) 6.39 (14:40) 20.4 17.2 0 0.2 3
31-01-2019 6.3 (21:20) -0.5 (-00:0) 2.9 5.83 (17:30) 3.89 (17:40) 25.8 3.6 12.2 2.4 7.6
30-01-2019 3.2 (13:40) -1.1 (-00:0) 1.1 10.28 (00:40) 3.61 (01:00) 7 1.2 2.6 3.2 0
29-01-2019 2.3 (12:30) -0.3 (00:00) 1 12.22 (23:50) 4.72 (03:20) 10.6 0.2 0.4 3.8 6.2
28-01-2019 4.3 (15:00) -0.6 (-00:0) 1.9 15.56 (10:10) 6.39 (10:10) 26.4 2.8 7.4 11.4 4.8
27-01-2019 5.9 (06:00) 0.1 (00:00) 3 13.33 (16:20) 5.28 (16:20) 4.8 0 0 3.2 1.6
26-01-2019 12.9 (15:20) 0.8 (00:00) 6.8 7.22 (03:30) 2.78 (03:10) 0 0 0 0 0
25-01-2019 9.9 (14:20) 3.9 (00:00) 6.9 22.5 (00:30) 10.83 (00:10) 1 0.8 0.2 0 0
24-01-2019 4 (23:59) -2.4 (-00:0) 0.8 20.28 (23:59) 11.67 (23:59) 5.4 5 0.4 0 0

Gráficas

Temp. máximas Temp. mínimas Temp. medias Precipitaciones Rachas de viento máximas Velocidades máximas media en intervalos de 10 minutos

Datos horarios

Fecha y hora oficial Temperatura (ºC) Velocidad del viento (km/h) Dirección del viento Racha (km/h) Dirección de racha Precipitación (mm) Presión (hPa) Tendencia (hPa) Humedad (%)
2019-02-22 23:00:00 7.2 2 Norte 17 Nordeste 0 910.3 -0.2 47
2019-02-22 22:00:00 8.4 5 Norte 22 Nordeste 0 910.6 0.3 44
2019-02-22 21:00:00 9.7 13 Norte 21 Norte 0 910.6 0.6 41
2019-02-22 20:00:00 10.8 14 Norte 22 Norte 0 910.5 0.5 43
2019-02-22 19:00:00 12.7 7 Norte 11 Sudoeste 0 910.3 0.5 41
2019-02-22 18:00:00 17.2 6 Sudoeste 15 Sudoeste 0 910 -0.2 30
2019-02-22 17:00:00 19.1 8 Sudoeste 16 Sudoeste 0 910 -0.9 26
2019-02-22 16:00:00 19.9 6 Sudoeste 16 Sudoeste 0 909.8 -1.7 22
2019-02-22 15:00:00 19 9 Sur 18 Sur 0 910.2 -1.6 22
2019-02-22 14:00:00 18 10 Sur 17 Sur 0 910.9 -1.5 23
2019-02-22 13:00:00 16.7 6 Sudeste 12 Sur 0 911.5 -1.1 21
2019-02-22 12:00:00 14.5 6 Sudeste 10 Sudeste 0 911.8 -0.5 23
2019-02-22 11:00:00 12 4 Sudeste 9 Nordeste 0 912.4 0.4 29
2019-02-22 10:00:00 8 8 Nordeste 22 Norte 0 912.6 0.4 34
2019-02-22 09:00:00 6 5 Norte 18 Nordeste 0 912.3 0.2 35
2019-02-22 08:00:00 5.3 11 Norte 21 Norte 0 912 -0.5 32
2019-02-22 07:00:00 3.8 3 Oeste 19 Norte 0 912.2 -0.5 38
2019-02-22 06:00:00 4.6 12 Norte 17 Norte 0 912.1 -0.7 39
2019-02-22 05:00:00 3.9 4 Nordeste 18 Nordeste 0 912.5 -0.5 49
2019-02-22 04:00:00 5.8 12 Norte 23 Norte 0 912.7 -0.2 41
2019-02-22 03:00:00 4.9 4 Norte 16 Norte 0 912.8 0.1 50
2019-02-22 02:00:00 6.3 9 Norte 22 Nordeste 0 913 0.3 39
2019-02-22 01:00:00 6.4 12 Norte 24 Norte 0 912.9 0.6 40
2019-02-22 00:00:00 5.7 7 Norte 24 Nordeste 0 912.7 0.9 41
2019-02-21 23:00:00 6.5 15 Nordeste 24 Norte 0 912.7 1.4 41
2019-02-21 22:00:00 6.9 17 Norte 24 Nordeste 0 912.3 1.6 50
2019-02-21 21:00:00 7.3 14 Norte 26 Nordeste 0 911.8 1.5 59
2019-02-21 20:00:00 8.1 12 Norte 24 Nordeste 0 911.3 1.3 58
2019-02-21 19:00:00 10.4 9 Norte 17 Nordeste 0 910.7 0.9 49
2019-02-21 18:00:00 13.9 6 Sudoeste 16 Sudoeste 0 910.3 0.7 37
2019-02-21 17:00:00 15.5 8 Sur 21 Sudoeste 0 910 0.3 30
2019-02-21 16:00:00 15.4 9 Sudoeste 23 Sudoeste 0 909.8 -0.4 31
2019-02-21 15:00:00 15.5 11 Sudoeste 26 Sudoeste 0 909.6 -0.5 32
2019-02-21 14:00:00 15.1 12 Sudoeste 22 Oeste 0 909.7 -0.3 33
2019-02-21 13:00:00 15.3 10 Sur 19 Sur 0 910.2 0.5 35
2019-02-21 12:00:00 13.8 5 Sur 9 Sudeste 0 910.1 0.9 38
2019-02-21 11:00:00 11.1 3 Sudeste 11 Nordeste 0 910 1.3 45
2019-02-21 10:00:00 7.6 7 Nordeste 12 Norte 0 909.7 1.3 57
2019-02-21 09:00:00 5.3 7 Norte 17 Norte 0 909.2 1.1 63
2019-02-21 08:00:00 3.8 6 Nordeste 15 Norte 0 908.7 0.6 68
2019-02-21 07:00:00 3 4 Norte 14 Norte 0 908.4 0.1 69
2019-02-21 06:00:00 3.4 5 Norte 15 Norte 0 908.1 -0.1 66
2019-02-21 05:00:00 3.7 8 Norte 15 Nordeste 0 908.1 0.1 63
2019-02-21 04:00:00 2.9 0 Calma 7 Norte 0 908.3 0.6 65
2019-02-21 03:00:00 4.3 6 Norte 11 Norte 0 908.2 0.6 56
2019-02-21 02:00:00 4.9 7 Norte 20 Norte 0 908 0.8 53
2019-02-21 01:00:00 4.8 12 Norte 19 Nordeste 0 907.7 0.7 55
2019-02-21 00:00:00 4.5 5 Norte 21 Norte 0 907.6 1 60
2019-02-20 23:00:00 5.7 16 Norte 26 Norte 0 907.2 0.9 60
2019-02-20 22:00:00 5.8 17 Norte 23 Nordeste 0 907 1.4 66
2019-02-20 21:00:00 6.4 13 Norte 21 Norte 0 906.6 1.3 66
2019-02-20 20:00:00 7.2 14 Norte 21 Norte 0 906.3 1.3 63
2019-02-20 19:00:00 9 3 Norte 14 Sudoeste 0 905.6 0.8 58
2019-02-20 18:00:00 11.9 8 Sudoeste 18 Sudoeste 0 905.3 0.3 44
2019-02-20 17:00:00 13.7 8 Sudoeste 20 Sudoeste 0 905 -0.2 37
2019-02-20 16:00:00 14 9 Sudoeste 21 Sur 0 904.8 -0.7 35
2019-02-20 15:00:00 13.8 10 Sudoeste 18 Sudoeste 0 905 -0.5 31
2019-02-20 14:00:00 13.2 12 Sudoeste 21 Sudoeste 0 905.2 -0.2 33
2019-02-20 13:00:00 13.1 8 Sur 18 Sur 0 905.5 0.6 27
2019-02-20 12:00:00 11.4 6 Sudeste 11 Sur 0 905.5 1 36
2019-02-20 11:00:00 8.9 5 Sudeste 8 Sudeste 0 905.4 1.7 46
2019-02-20 10:00:00 5.4 7 Nordeste 13 Norte 0 904.9 1.4 55
2019-02-20 09:00:00 2.9 3 Norte 12 Nordeste 0 904.5 1 61
2019-02-20 08:00:00 2.2 8 Norte 15 Nordeste 0 903.7 0.1 63
2019-02-20 07:00:00 1.6 5 Norte 9 Norte 0 903.5 -0.3 68
2019-02-20 06:00:00 1.7 4 Nordeste 13 Norte 0 903.5 -0.4 68
2019-02-20 05:00:00 2.9 7 Norte 16 Norte 0 903.6 -0.3 62
2019-02-20 04:00:00 3.2 10 Norte 19 Norte 0 903.8 0.1 62
2019-02-20 03:00:00 3.7 13 Norte 19 Nordeste 0 903.9 0.3 64
2019-02-20 02:00:00 3.4 7 Norte 18 Norte 0 903.9 0.5 67
2019-02-20 01:00:00 4.1 12 Norte 19 Norte 0 903.7 0.6 65
2019-02-20 00:00:00 4.6 12 Norte 19 Nordeste 0 903.6 0.8 63
2019-02-19 23:00:00 4.8 13 Norte 19 Norte 0 903.4 0.9 62
2019-02-19 22:00:00 4.2 4 Norte 13 Norte 0 903.1 1.3 63
2019-02-19 21:00:00 5.3 7 Norte 17 Norte 0 902.8 1.4 59
2019-02-19 20:00:00 6.3 11 Norte 20 Norte 0 902.5 0.9 56
2019-02-19 19:00:00 8 3 Norte 16 Oeste 0 901.8 0.2 50
2019-02-19 18:00:00 10.9 10 Sudoeste 18 Sur 0 901.4 -0.5 37
2019-02-19 17:00:00 13.3 8 Sudoeste 18 Sudoeste 0 901.6 -0.5 32
2019-02-19 16:00:00 14 8 Sudoeste 18 Sudoeste 0 901.6 -1 27
2019-02-19 15:00:00 13.3 11 Sudoeste 21 Sur 0 901.9 -0.9 25
2019-02-19 14:00:00 13.3 13 Sudoeste 26 Sudoeste 0 902.1 -0.7 25
2019-02-19 13:00:00 13.3 9 Sur 16 Sur 0 902.6 -0.1 20
2019-02-19 12:00:00 11.9 6 Sur 10 Sudeste 0 902.8 0.5 23
2019-02-19 11:00:00 8.8 4 Sudeste 8 Sur 0 902.8 0.9 31
2019-02-19 10:00:00 5.7 3 Nordeste 12 Norte 0 902.7 0.9 44
2019-02-19 09:00:00 4 7 Norte 14 Norte 0 902.3 0.7 38
2019-02-19 08:00:00 2 2 Nordeste 16 Norte 0 901.9 0.3 43
2019-02-19 07:00:00 3.9 9 Norte 18 Norte 0 901.8 -0.1 35
2019-02-19 06:00:00 5 12 Norte 22 Norte 0 901.6 -0.5 33
2019-02-19 05:00:00 5.2 14 Norte 22 Nordeste 0 901.6 -0.8 32
2019-02-19 04:00:00 4.6 11 Nordeste 22 Nordeste 0 901.9 -0.5 35
2019-02-19 03:00:00 4.6 10 Nordeste 20 Nordeste 0 902.1 -0.3 36
2019-02-19 02:00:00 5.1 11 Nordeste 18 Norte 0 902.4 -0.1 33
2019-02-19 01:00:00 5.3 13 Norte 21 Norte 0 902.4 0.2 32
2019-02-19 00:00:00 5.6 11 Norte 17 Nordeste 0 902.4 0.7 28
2019-02-18 23:00:00 6.1 5 Norte 19 Norte 0 902.5 0.9 31
2019-02-18 22:00:00 6.3 12 Norte 19 Norte 0 902.2 1 29
2019-02-18 21:00:00 6.9 13 Norte 24 Norte 0 901.7 1 33
2019-02-18 20:00:00 7.2 15 Norte 25 Norte 0 901.6 1 45
2019-02-18 19:00:00 8.1 3 Norte 19 Oeste 0 901.2 0.5 45
2019-02-18 18:00:00 11.8 10 Sudoeste 23 Sudoeste 0 900.7 -0.5 32
2019-02-18 17:00:00 14.2 13 Sur 29 Sur 0 900.6 -1 16
2019-02-18 16:00:00 14.7 18 Sur 32 Sur 0 900.7 -1.5 13
2019-02-18 15:00:00 15 15 Sudeste 27 Sudeste 0 901.2 -1.3 13
2019-02-18 14:00:00 14.8 14 Sudeste 31 Sur 0 901.6 -1 17
2019-02-18 13:00:00 14.6 16 Sur 31 Sur 0 902.2 -0.4 18
2019-02-18 12:00:00 13.7 12 Sur 20 Sudoeste 0 902.5 0.2 20
2019-02-18 11:00:00 12.2 4 Sur 10 Nordeste 0 902.6 0.7 23
2019-02-18 10:00:00 8.7 5 Nordeste 16 Nordeste 0 902.6 0.4 34
2019-02-18 09:00:00 5.8 8 Nordeste 15 Nordeste 0 902.3 0.1 33
2019-02-18 08:00:00 5.2 6 Nordeste 14 Nordeste 0 901.9 -0.4 33
2019-02-18 07:00:00 5.3 8 Norte 15 Norte 0 902.2 -0.4 32
2019-02-18 06:00:00 5.4 10 Norte 17 Nordeste 0 902.2 -0.8 33
2019-02-18 05:00:00 6.4 6 Norte 21 Nordeste 0 902.3 -1.1 30
2019-02-18 04:00:00 7 6 Nordeste 14 Nordeste 0 902.6 -0.7 27
2019-02-18 03:00:00 7.1 4 Sudeste 22 Sudoeste 0 903 -0.5 25
2019-02-18 02:00:00 6.7 7 Sur 19 Sudeste 0 903.4 -0.1 29
2019-02-18 01:00:00 7.1 9 Sur 23 Sur 0 903.3 -0.3 29
2019-02-18 00:00:00 7 8 Sur 16 Sur 0 903.5 0.1 30
2019-02-17 23:00:00 7 5 Noroeste 20 Norte 0 903.5 -0.3 29
2019-02-17 22:00:00 7.5 5 Este 17 Norte 0 903.6 0.2 27
2019-02-17 21:00:00 8.5 7 Nordeste 21 Nordeste 0 903.4 0.1 24
2019-02-17 20:00:00 8.6 15 Norte 23 Nordeste 0 903.8 0 26
2019-02-17 19:00:00 11.4 9 Sudeste 33 Sur 0 903.4 -0.7 17
2019-02-17 18:00:00 12.9 19 Sudeste 33 Sudeste 0 903.3 -1.3 15
2019-02-17 17:00:00 14.7 15 Sur 34 Sudoeste 0 903.8 -1.6 15
2019-02-17 16:00:00 15.4 18 Sur 32 Sur 0 904.1 -2.2 14
2019-02-17 15:00:00 15.9 19 Sur 33 Sudoeste 0 904.6 -2.2 13
2019-02-17 14:00:00 15.8 13 Sudeste 32 Sur 0 905.4 -1.8 13
2019-02-17 13:00:00 15.3 18 Sur 44 Sur 0 906.3 -1.1 12
2019-02-17 12:00:00 15.1 10 Sur 22 Sudoeste 0 906.8 -0.5 15
2019-02-17 11:00:00 13.6 6 Sur 15 Norte 0 907.2 0.3 18
2019-02-17 10:00:00 9.7 12 Nordeste 24 Norte 0 907.4 0.6 25
2019-02-17 09:00:00 7.2 12 Nordeste 25 Nordeste 0 907.3 0.4 27
2019-02-17 08:00:00 6.8 10 Nordeste 19 Norte 0 906.9 -0.1 24
2019-02-17 07:00:00 7 10 Norte 23 Nordeste 0 906.8 -0.5 24
2019-02-17 06:00:00 7 16 Norte 27 Norte 0 906.9 -0.6 24
2019-02-17 05:00:00 8.2 9 Norte 18 Norte 0 907 -0.9 19
2019-02-17 04:00:00 8.8 7 Noroeste 22 Sur 0 907.3 -0.7 16
2019-02-17 03:00:00 9.2 8 Sudeste 34 Sur 0 907.5 -0.6 17
2019-02-17 02:00:00 10.2 13 Sudeste 39 Sur 0 907.9 -0.3 14
2019-02-17 01:00:00 10.1 12 Sudeste 33 Sur 0 908 -0.3 14
2019-02-17 00:00:00 10.4 15 Sudeste 33 Sudeste 0 908.1 -0.2 14
2019-02-16 23:00:00 10.4 11 Sudeste 35 Este 0 908.2 -0.2 15
2019-02-16 22:00:00 9.2 4 Este 16 Nordeste 0 908.3 0.3 20
2019-02-16 21:00:00 8.9 4 Sudoeste 15 Sudeste 0 908.3 0.4 22
2019-02-16 20:00:00 10.3 5 Sudeste 23 Sudeste 0 908.4 0.3 21
2019-02-16 19:00:00 11.9 10 Sudeste 33 Sur 0 908 -0.4 17
2019-02-16 18:00:00 13.4 20 Sur 44 Sur 0 907.9 -1.1 14
2019-02-16 17:00:00 15 26 Sur 44 Sur 0 908.1 -1.6 12
2019-02-16 16:00:00 15.5 18 Sudeste 50 Sur 0 908.4 -1.8 12
2019-02-16 15:00:00 15.7 27 Sur 46 Sur 0 909 -1.1 10
2019-02-16 14:00:00 15.7 26 Sur 45 Sur 0 909.7 -0.5 9
2019-02-16 13:00:00 15.5 21 Sur 38 Sur 0 910.2 0.1 10
2019-02-16 12:00:00 14.6 6 Sur 10 Sur 0 910.1 0.3 17
2019-02-16 11:00:00 10.9 6 Nordeste 18 Norte 0 910.2 0.8 26
2019-02-16 10:00:00 8 12 Nordeste 20 Nordeste 0 910.1 0.9 29
2019-02-16 09:00:00 4.1 2 Sudoeste 7 Nordeste 0 909.8 0.7 31
2019-02-16 08:00:00 2.4 0 Calma 7 Oeste 0 909.4 0.1 35
2019-02-16 07:00:00 2.7 2 Este 12 Nordeste 0 909.2 -0.3 36
2019-02-16 06:00:00 3.1 2 Noroeste 8 Nordeste 0 909.1 -0.5 36
2019-02-16 05:00:00 2.5 3 Norte 7 Nordeste 0 909.3 -0.7 42
2019-02-16 04:00:00 3.8 6 Norte 13 Norte 0 909.5 -0.5 41
2019-02-16 03:00:00 3.6 5 Norte 15 Norte 0 909.6 -0.5 41
2019-02-16 02:00:00 3.7 4 Nordeste 15 Norte 0 910 0.1 42
2019-02-16 01:00:00 4.5 6 Nordeste 18 Norte 0 910 0.2 41
2019-02-16 00:00:00 4.9 9 Norte 21 Nordeste 0 910.1 0.6 42
2019-02-15 23:00:00 5.6 12 Norte 22 Norte 0 909.9 0.5 41
2019-02-15 22:00:00 5.8 9 Norte 20 Norte 0 909.8 0.9 41
2019-02-15 21:00:00 6.5 9 Norte 16 Nordeste 0 909.5 1 40
2019-02-15 20:00:00 7.9 12 Norte 20 Norte 0 909.4 0.9 34
2019-02-15 19:00:00 9.6 8 Norte 15 Nordeste 0 908.9 0.1 31
2019-02-15 18:00:00 13.9 6 Oeste 19 Sudoeste 0 908.5 -0.6 23
2019-02-15 17:00:00 16 12 Sur 23 Sudoeste 0 908.5 -1.1 12
2019-02-15 16:00:00 17 15 Sur 24 Sudoeste 0 908.8 -1.7 11
2019-02-15 15:00:00 17 14 Sur 23 Sur 0 909.1 -1.5 11
2019-02-15 14:00:00 17 10 Sur 18 Sur 0 909.6 -0.7 12
2019-02-15 13:00:00 15.8 7 Sur 12 Sur 0 910.5 0.1 14
2019-02-15 12:00:00 13.3 5 Sur 9 Sur 0 910.6 0.4 20
2019-02-15 11:00:00 9.9 5 Nordeste 15 Nordeste 0 910.3 0.3 24
2019-02-15 10:00:00 8.5 10 Nordeste 17 Nordeste 0 910.4 0.5 23
2019-02-15 09:00:00 5.2 6 Norte 15 Norte 0 910.2 0.5 23
2019-02-15 08:00:00 4.4 7 Norte 17 Nordeste 0 910 0.3 23
2019-02-15 07:00:00 4.1 7 Norte 18 Nordeste 0 909.9 -0.1 25
2019-02-15 06:00:00 5.6 14 Norte 22 Norte 0 909.7 -0.5 22
2019-02-15 05:00:00 5.7 12 Norte 23 Norte 0 909.7 -0.8 23
2019-02-15 04:00:00 5.9 16 Norte 24 Norte 0 910 -0.6 22
2019-02-15 03:00:00 5.9 19 Nordeste 28 Norte 0 910.2 -0.8 24
2019-02-15 02:00:00 6.1 17 Norte 26 Norte 0 910.5 -0.6 23
2019-02-15 01:00:00 5.9 16 Norte 24 Norte 0 910.6 -0.3 23
2019-02-15 00:00:00 6.1 14 Norte 24 Nordeste 0 911 0.2 25
2019-02-14 23:00:00 5.9 7 Norte 23 Nordeste 0 911.1 0.3 22
2019-02-14 22:00:00 7.4 12 Norte 24 Norte 0 910.9 0.3 21
2019-02-14 21:00:00 6.6 12 Norte 24 Nordeste 0 910.8 0.1 27
2019-02-14 20:00:00 7.7 15 Norte 28 Norte 0 910.8 -0.1 24
2019-02-14 19:00:00 10.4 9 Norte 16 Sudeste 0 910.6 -0.6 18
2019-02-14 18:00:00 13.1 8 Sur 28 Sur 0 910.7 -1 11
2019-02-14 17:00:00 15.1 17 Sur 34 Sur 0 910.9 -1.3 9
2019-02-14 16:00:00 15.8 17 Sur 35 Sur 0 911.2 -1.8 8
2019-02-14 15:00:00 16 19 Sur 35 Sur 0 911.7 -1.7 9
2019-02-14 14:00:00 15.7 21 Sur 36 Sur 0 912.2 -1 10
2019-02-14 13:00:00 15.1 19 Sur 39 Sur 0 913 -0.2 10
2019-02-14 12:00:00 14.3 15 Sur 24 Sur 0 913.4 0.6 14
2019-02-14 11:00:00 11.8 6 Nordeste 20 Nordeste 0 913.2 0.7 21
2019-02-14 10:00:00 8.8 10 Nordeste 23 Nordeste 0 913.2 0.9 29
2019-02-14 09:00:00 6 11 Norte 24 Nordeste 0 912.8 0.6 33
2019-02-14 08:00:00 4.9 9 Norte 24 Norte 0 912.5 0.1 38
2019-02-14 07:00:00 5.1 18 Norte 28 Nordeste 0 912.3 -0.4 41
2019-02-14 06:00:00 4.9 17 Norte 25 Nordeste 0 912.2 -0.5 43
2019-02-14 05:00:00 4.7 9 Norte 22 Nordeste 0 912.4 -0.4 42
2019-02-14 04:00:00 3.4 6 Norte 17 Nordeste 0 912.7 0 47
2019-02-14 03:00:00 4 6 Norte 19 Norte 0 912.7 0.1 47
2019-02-14 02:00:00 4.4 9 Norte 22 Norte 0 912.8 0.3 49
2019-02-14 01:00:00 4.9 14 Norte 25 Nordeste 0 912.7 0.4 51
2019-02-14 00:00:00 5.3 18 Norte 24 Norte 0 912.6 0.6 52
2019-02-13 23:00:00 5.7 18 Norte 25 Nordeste 0 912.5 0.5 54
2019-02-13 22:00:00 5.4 11 Norte 23 Nordeste 0 912.3 0.7 57
2019-02-13 21:00:00 5.5 11 Norte 24 Nordeste 0 912 0.8 57
2019-02-13 20:00:00 6.5 9 Norte 20 Nordeste 0 912 1.1 53
2019-02-13 19:00:00 8.4 8 Norte 13 Sudoeste 0 911.6 0.7 46
2019-02-13 18:00:00 11.6 7 Sudoeste 18 Sudoeste 0 911.2 0 35
2019-02-13 17:00:00 14.2 8 Sur 21 Sudoeste 0 910.9 -0.6 25
2019-02-13 16:00:00 14.6 13 Sur 22 Sur 0 910.9 -0.9 23
2019-02-13 15:00:00 14.7 13 Sur 21 Sur 0 911.2 -0.5 20
2019-02-13 14:00:00 14.2 11 Sudoeste 19 Sudoeste 0 911.5 0.3 20
2019-02-13 13:00:00 13.6 8 Sur 14 Sur 0 911.8 0.8 20
2019-02-13 12:00:00 11.8 5 Sudeste 9 Sudeste 0 911.7 0.7 28
2019-02-13 11:00:00 8.3 4 Nordeste 14 Nordeste 0 911.2 0.5 32
2019-02-13 10:00:00 5.6 10 Nordeste 17 Nordeste 0 911 0.4 33
2019-02-13 09:00:00 3.2 9 Norte 18 Nordeste 0 911 0.5 37
2019-02-13 08:00:00 1.7 6 Nordeste 17 Norte 0 910.7 0.1 42
2019-02-13 07:00:00 1.2 4 Norte 12 Norte 0 910.6 -0.4 46
2019-02-13 06:00:00 1.1 0 Calma 7 Norte 0 910.5 -0.9 49
2019-02-13 05:00:00 2 5 Norte 14 Norte 0 910.6 -0.9 45
2019-02-13 04:00:00 2.7 8 Norte 18 Norte 0 911 -0.5 44
2019-02-13 03:00:00 1.8 4 Nordeste 16 Norte 0 911.4 -0.2 51
2019-02-13 02:00:00 2.2 8 Norte 15 Norte 0 911.5 -0.4 50
2019-02-13 01:00:00 2.6 3 Norte 15 Norte 0 911.5 -0.3 47
2019-02-13 00:00:00 3.4 10 Norte 20 Norte 0 911.6 -0.2 46
2019-02-12 23:00:00 3.9 10 Norte 17 Norte 0 911.9 0.3 47
2019-02-12 22:00:00 4.1 10 Norte 16 Nordeste 0 911.8 0.7 50
2019-02-12 21:00:00 4.4 9 Norte 21 Norte 0 911.8 0.9 51
2019-02-12 20:00:00 5.3 13 Norte 20 Norte 0 911.6 0.7 48
2019-02-12 19:00:00 7 8 Nordeste 13 Nordeste 0 911.1 0.1 43
2019-02-12 18:00:00 10.2 8 Sudoeste 19 Sudoeste 0 910.9 -0.3 29
2019-02-12 17:00:00 13 10 Sudoeste 16 Sudoeste 0 910.9 -0.9 22
2019-02-12 16:00:00 13.2 7 Sudoeste 21 Sudoeste 0 911 -1.3 21
2019-02-12 15:00:00 13.1 7 Sudeste 15 Sur 0 911.2 -1.3 20
2019-02-12 14:00:00 12.4 5 Sur 13 Sudeste 0 911.8 -0.8 19
2019-02-12 13:00:00 10.8 8 Sur 14 Sur 0 912.3 0 29
2019-02-12 12:00:00 8.7 5 Sudeste 9 Sudeste 0 912.5 0.7 26
2019-02-12 11:00:00 5.4 3 Este 15 Norte 0 912.6 1.3 41
2019-02-12 10:00:00 2.2 6 Nordeste 15 Nordeste 0 912.3 1.3 50
2019-02-12 09:00:00 -0.9 3 Norte 8 Norte 0 911.8 0.8 57
2019-02-12 08:00:00 -0.7 5 Norte 13 Norte 0 911.3 0.1 56
2019-02-12 07:00:00 -0.1 5 Nordeste 16 Norte 0 911 -0.4 54
2019-02-12 06:00:00 -1.5 3 Noroeste 6 Oeste 0 911 -0.4 58
2019-02-12 05:00:00 -0.9 3 Norte 7 Norte 0 911.2 -0.2 56
2019-02-12 04:00:00 -0.9 7 Norte 10 Norte 0 911.4 0.7 60
2019-02-12 03:00:00 -0.5 9 Norte 17 Norte 0 911.4 0.9 65
2019-02-12 02:00:00 -1 3 Nordeste 17 Nordeste 0 911.4 1.1 73
2019-02-12 01:00:00 -0.3 4 Noroeste 11 Nordeste 0 910.7 0.9 70
2019-02-12 00:00:00 0.3 4 Noroeste 10 Norte 0 910.5 1 69
2019-02-11 23:00:00 1.2 2 Oeste 8 Norte 0 910.3 1.1 66
2019-02-11 22:00:00 2.4 3 Oeste 48 Norte 0 909.8 1 60
2019-02-11 21:00:00 4.8 21 Norte 40 Norte 0 909.5 1 46
2019-02-11 20:00:00 5 21 Norte 41 Norte 0 909.2 1 50
2019-02-11 19:00:00 5.3 8 Norte 34 Norte 0 908.8 0.6 53
2019-02-11 18:00:00 6.1 18 Norte 36 Nordeste 0 908.5 0.5 54
2019-02-11 17:00:00 7.6 7 Norte 28 Nordeste 0 908.2 0.1 44
2019-02-11 16:00:00 7.2 19 Nordeste 40 Nordeste 0 908.2 0 47
2019-02-11 15:00:00 8.4 12 Norte 31 Nordeste 0 908 0.2 44
2019-02-11 14:00:00 7.9 12 Norte 32 Nordeste 0 908.1 0.7 39
2019-02-11 13:00:00 7.1 19 Nordeste 35 Nordeste 0 908.2 1.5 46
2019-02-11 12:00:00 7.7 14 Sudoeste 26 Sudoeste 0 907.8 1.8 49
2019-02-11 11:00:00 5.5 12 Sudoeste 24 Sudoeste 0 907.4 2.3 64
2019-02-11 10:00:00 3 5 Sur 22 Oeste 0 906.7 1.9 72
2019-02-11 09:00:00 1.7 10 Oeste 24 Oeste 0 906 1.9 78
2019-02-11 08:00:00 1.5 8 Noroeste 23 Noroeste 0 905.1 1.7 77
2019-02-11 07:00:00 2.3 8 Oeste 18 Noroeste 0 904.8 1.4 67
2019-02-11 06:00:00 1.9 3 Sudoeste 29 Oeste 0 904.1 0.8 70
2019-02-11 05:00:00 2.9 5 Noroeste 36 Noroeste 0 903.4 0.1 63
2019-02-11 04:00:00 4.2 15 Noroeste 44 Norte 0 903.4 0.2 52
2019-02-11 03:00:00 2.4 6 Noroeste 24 Oeste 0 903.3 0 62
2019-02-11 02:00:00 1.5 5 Sudoeste 25 Oeste 0 903.3 0.4 55
2019-02-11 01:00:00 1.7 8 Noroeste 21 Sudoeste 0 903.2 0.4 67
2019-02-11 00:00:00 2.1 10 Oeste 21 Noroeste 0 903.3 1.1 69
2019-02-10 23:00:00 2.9 11 Oeste 30 Noroeste 0 902.9 1.5 68
2019-02-10 22:00:00 5.3 12 Noroeste 32 Noroeste 0 902.8 1.7 58
2019-02-10 21:00:00 4.1 18 Oeste 28 Noroeste 0 902.2 1.6 72
2019-02-10 20:00:00 5.7 10 Noroeste 30 Noroeste 0 901.4 1.3 67
2019-02-10 19:00:00 5.1 16 Noroeste 34 Noroeste 0 901.1 0.7 76
2019-02-10 18:00:00 5.4 18 Oeste 30 Noroeste 0 900.6 0.4 84
2019-02-10 17:00:00 6 13 Oeste 24 Noroeste 0 900.1 -0.6 88
2019-02-10 16:00:00 6 10 Oeste 19 Sudoeste 0.2 900.4 -0.5 91
2019-02-10 15:00:00 5.7 2 Sudeste 7 Nordeste 0.4 900.2 -0.8 92
2019-02-10 14:00:00 5.2 3 Norte 6 Oeste 0 900.7 0 92
2019-02-10 13:00:00 5.2 3 Nordeste 6 Nordeste 0 900.9 0.6 91
2019-02-10 12:00:00 5 4 Sur 11 Oeste 0.4 901 1 89
2019-02-10 11:00:00 4.9 3 Norte 13 Norte 1 900.7 0.9 88
2019-02-10 10:00:00 4.7 5 Norte 16 Norte 0.2 900.3 0.9 83
2019-02-10 09:00:00 4.8 12 Nordeste 18 Nordeste 0 900 0.4 72
2019-02-10 08:00:00 4.3 4 Norte 13 Norte 0 899.8 -0.4 73
2019-02-10 07:00:00 3.9 2 Norte 11 Norte 0 899.4 -1.1 74
2019-02-10 06:00:00 4.7 6 Norte 21 Nordeste 0 899.6 -1.2 69
2019-02-10 05:00:00 4.3 6 Norte 17 Nordeste 0 900.2 -1.1 72
2019-02-10 04:00:00 4.7 10 Norte 21 Norte 0 900.5 -1.2 71
2019-02-10 03:00:00 5.1 15 Norte 22 Norte 0 900.8 -1.1 69
2019-02-10 02:00:00 6.2 9 Norte 22 Nordeste 0 901.3 -0.8 64
2019-02-10 01:00:00 5.9 15 Nordeste 24 Nordeste 0 901.7 -0.2 66
2019-02-10 00:00:00 5.8 11 Norte 23 Norte 0 901.9 -0.1 66
2019-02-09 23:00:00 5.8 6 Norte 23 Nordeste 0 902.1 -0.1 65
2019-02-09 22:00:00 5.8 14 Nordeste 26 Norte 0 901.9 -0.1 65
2019-02-09 21:00:00 6.3 11 Norte 21 Norte 0 902 0.5 68
2019-02-09 20:00:00 6.2 11 Nordeste 20 Norte 0 902.2 0.3 71
2019-02-09 19:00:00 7.4 5 Norte 7 Norte 0 902 0 68
2019-02-09 18:00:00 10.3 3 Sudoeste 14 Sudeste 0 901.5 -0.8 58
2019-02-09 17:00:00 12.7 5 Sur 19 Sudeste 0 901.9 -1.2 47
2019-02-09 16:00:00 12.6 10 Sur 20 Sudoeste 0 902 -1.6 46
2019-02-09 15:00:00 12.3 12 Sur 19 Sudoeste 0 902.3 -1.5 45
2019-02-09 14:00:00 11.8 9 Sudoeste 19 Sudoeste 0 903.1 -0.3 51
2019-02-09 13:00:00 11.8 5 Sur 12 Sur 0 903.6 0.3 45
2019-02-09 12:00:00 9.7 5 Sur 10 Sur 0 903.8 0.8 52
2019-02-09 11:00:00 8.4 4 Sudeste 11 Nordeste 0 903.4 1 54
2019-02-09 10:00:00 4.8 6 Nordeste 12 Nordeste 0 903.3 0.9 66
2019-02-09 09:00:00 2.4 0 Calma 15 Nordeste 0 903 0.7 73
2019-02-09 08:00:00 2.7 3 Noroeste 10 Nordeste 0 902.4 -0.1 71
2019-02-09 07:00:00 3.5 7 Nordeste 13 Norte 0 902.4 -0.5 66
2019-02-09 06:00:00 4.1 8 Norte 16 Norte 0 902.3 -0.7 65
2019-02-09 05:00:00 3.4 5 Norte 11 Nordeste 0 902.5 -0.4 69
2019-02-09 04:00:00 4.7 6 Norte 15 Nordeste 0 902.9 0 63
2019-02-09 03:00:00 5 10 Nordeste 17 Norte 0 903 0.2 61
2019-02-09 02:00:00 4.9 6 Norte 21 Norte 0 902.9 0.4 60
2019-02-09 01:00:00 4.9 7 Norte 16 Nordeste 0 902.9 0.4 60
2019-02-09 00:00:00 5.1 5 Norte 19 Nordeste 0 902.8 0.2 59
2019-02-08 23:00:00 5.3 10 Norte 23 Nordeste 0 902.5 0.4 61
2019-02-08 22:00:00 4.8 6 Norte 19 Norte 0 902.5 1 67
2019-02-08 21:00:00 5.4 11 Norte 26 Nordeste 0 902.6 1.3 64
2019-02-08 20:00:00 5.9 6 Norte 18 Nordeste 0 902.1 0.9 63
2019-02-08 19:00:00 7.4 9 Norte 18 Nordeste 0 901.5 0.1 57
2019-02-08 18:00:00 11.2 5 Oeste 13 Sudoeste 0 901.3 -0.6 45
2019-02-08 17:00:00 14.3 8 Sur 13 Sur 0 901.2 -1.1 27
2019-02-08 16:00:00 14.7 7 Sur 17 Sur 0 901.4 -1.6 27
2019-02-08 15:00:00 14.3 8 Sur 15 Sur 0 901.9 -1.5 30
2019-02-08 14:00:00 13.9 9 Sur 15 Sur 0 902.3 -1.2 28
2019-02-08 13:00:00 12.9 5 Sur 12 Sudeste 0 903 -0.5 31
2019-02-08 12:00:00 11 4 Sudeste 9 Sudeste 0 903.4 0 39
2019-02-08 11:00:00 6.4 4 Nordeste 13 Nordeste 0 903.5 0.7 47
2019-02-08 10:00:00 4.5 6 Nordeste 11 Norte 0 903.5 0.5 53
2019-02-08 09:00:00 0.8 0 Calma 12 Norte 0 903.4 -0.2 59
2019-02-08 08:00:00 1.3 3 Noroeste 19 Nordeste 0 902.8 -0.8 56
2019-02-08 07:00:00 1.2 6 Norte 14 Nordeste 0 903 -1 58
2019-02-08 06:00:00 0.7 3 Norte 7 Nordeste 0 903.6 -0.9 65
2019-02-08 05:00:00 0.3 3 Norte 10 Nordeste 0 903.6 -1 71
2019-02-08 04:00:00 0.5 3 Norte 7 Norte 0 904 -0.5 72
2019-02-08 03:00:00 0.2 3 Oeste 14 Nordeste 0 904.5 -0.3 75
2019-02-08 02:00:00 0.3 0 Calma 16 Nordeste 0 904.6 -0.3 83
2019-02-08 01:00:00 1.2 11 Norte 14 Norte 0 904.5 -0.2 75
2019-02-08 00:00:00 0.9 4 Norte 13 Nordeste 0 904.8 0.4 81
2019-02-07 23:00:00 1.5 8 Norte 19 Norte 0 904.9 0.4 80
2019-02-07 22:00:00 1.7 8 Norte 17 Norte 0 904.7 0.8 80
2019-02-07 21:00:00 2.3 5 Norte 13 Nordeste 0 904.4 1 77
2019-02-07 20:00:00 2.3 2 Norte 9 Sudoeste 0 904.5 1.4 80
2019-02-07 19:00:00 4.9 5 Sudoeste 25 Norte 0 903.9 0.8 69
2019-02-07 18:00:00 7 9 Oeste 33 Oeste 0 903.4 0.3 62
2019-02-07 17:00:00 9.8 10 Oeste 24 Norte 0 903.1 0.1 54
2019-02-07 16:00:00 10.6 8 Norte 22 Nordeste 0 903.1 -0.5 47
2019-02-07 15:00:00 11.4 9 Norte 33 Nordeste 0 903.1 -1 44
2019-02-07 14:00:00 11.9 12 Oeste 32 Oeste 0 903 -1 46
2019-02-07 13:00:00 11.5 10 Sudoeste 23 Sudoeste 0 903.6 0.1 56
2019-02-07 12:00:00 9.2 8 Sur 18 Sudoeste 0 904.1 0.9 64
2019-02-07 11:00:00 7 2 Sudeste 10 Sudoeste 0 904 1.2 67
2019-02-07 10:00:00 5.3 4 Nordeste 15 Nordeste 0 903.5 1 68
2019-02-07 09:00:00 2.6 4 Norte 9 Nordeste 0 903.2 1.1 79
2019-02-07 08:00:00 2.9 5 Nordeste 9 Nordeste 0 902.8 0.3 76
2019-02-07 07:00:00 3 3 Norte 13 Nordeste 0 902.5 -0.6 78
2019-02-07 06:00:00 3.5 6 Norte 11 Norte 0 902.1 -1.3 75
2019-02-07 05:00:00 4.5 9 Norte 15 Norte 0 902.5 -1.4 72
2019-02-07 04:00:00 4.4 6 Norte 18 Nordeste 0 903.1 -1 73
2019-02-07 03:00:00 4.3 5 Norte 16 Nordeste 0 903.4 -0.6 73
2019-02-07 02:00:00 4.6 4 Noroeste 20 Nordeste 0 903.9 0 74
2019-02-07 01:00:00 4.3 6 Nordeste 15 Norte 0 904.1 0 77
2019-02-07 00:00:00 4.6 2 Nordeste 15 Nordeste 0 904 -0.3 77
2019-02-06 23:00:00 5 3 Noroeste 11 Nordeste 0 903.9 -0.4 77
2019-02-06 22:00:00 5.3 0 Calma 14 Nordeste 0 904.1 0 76
2019-02-06 21:00:00 5.7 4 Este 10 Nordeste 0 904.3 0.3 78
2019-02-06 20:00:00 7 7 Norte 17 Norte 0 904.3 0 71
2019-02-06 19:00:00 7.9 9 Norte 15 Nordeste 0 904.1 -0.5 70
2019-02-06 18:00:00 10.2 6 Norte 9 Norte 0 904 -0.8 62
2019-02-06 17:00:00 13.5 3 Sur 18 Sudoeste 0 904.3 -1.2 51
2019-02-06 16:00:00 13.2 12 Sudoeste 26 Sudoeste 0 904.6 -1.8 53
2019-02-06 15:00:00 14.7 7 Sur 16 Sudoeste 0 904.8 -2 46
2019-02-06 14:00:00 14.2 5 Sudeste 9 Sur 0 905.5 -1.5 44
2019-02-06 13:00:00 12.5 4 Sudeste 9 Sudeste 0 906.4 -0.4 51
2019-02-06 12:00:00 10.4 3 Sudeste 8 Sur 0 906.8 0.1 57
2019-02-06 11:00:00 7.8 2 Este 9 Nordeste 0 907 0.7 65
2019-02-06 10:00:00 6.1 5 Nordeste 10 Nordeste 0 906.8 0.2 66
2019-02-06 09:00:00 2 4 Norte 11 Norte 0 906.7 -0.1 84
2019-02-06 08:00:00 1.7 0 Calma 5 Norte 0 906.3 -0.7 88
2019-02-06 07:00:00 1.9 0 Calma 6 Oeste 0 906.6 -0.7 87
2019-02-06 06:00:00 1.9 2 Sudeste 12 Norte 0 906.8 -0.9 85
2019-02-06 05:00:00 2.7 3 Norte 14 Norte 0 907 -0.8 81
2019-02-06 04:00:00 3.8 6 Norte 17 Norte 0 907.3 -0.7 77
2019-02-06 03:00:00 2.9 0 Calma 9 Norte 0 907.7 -0.3 84
2019-02-06 02:00:00 3.5 3 Norte 19 Norte 0 907.8 -0.2 79
2019-02-06 01:00:00 3.1 3 Oeste 14 Norte 0 908 -0.1 82
2019-02-06 00:00:00 4.1 5 Norte 12 Nordeste 0 908 0 81
2019-02-05 23:00:00 4.7 4 Norte 15 Norte 0 908 -0.1 81
2019-02-05 22:00:00 5.3 4 Oeste 13 Sudoeste 0 908.1 0.4 78
2019-02-05 21:00:00 5.4 4 Sudeste 27 Nordeste 0 908 0.4 77
2019-02-05 20:00:00 6 2 Noroeste 9 Norte 0 908.1 0.6 76
2019-02-05 19:00:00 8.2 8 Noroeste 21 Norte 0 907.7 0.4 64
2019-02-05 18:00:00 10 15 Norte 23 Norte 0 907.6 0.1 59
2019-02-05 17:00:00 11.5 12 Nordeste 30 Nordeste 0 907.5 -0.3 53
2019-02-05 16:00:00 12.3 18 Nordeste 32 Nordeste 0 907.3 -1.2 51
2019-02-05 15:00:00 12.6 12 Norte 33 Nordeste 0 907.5 -1.1 49
2019-02-05 14:00:00 13.9 6 Sur 11 Sudeste 0 907.8 -0.7 52
2019-02-05 13:00:00 13.1 5 Sudeste 11 Sudeste 0 908.5 0.1 56
2019-02-05 12:00:00 11.5 4 Sudeste 9 Sur 0 908.6 0.8 62
2019-02-05 11:00:00 8.1 3 Sudeste 13 Nordeste 0 908.5 1.2 73
2019-02-05 10:00:00 5.2 8 Norte 12 Norte 0 908.4 1.4 84
2019-02-05 09:00:00 3.8 6 Nordeste 17 Nordeste 0 907.8 1 90
2019-02-05 08:00:00 4.1 5 Norte 17 Nordeste 0 907.3 0.5 91
2019-02-05 07:00:00 3.2 5 Norte 15 Nordeste 0 907 -0.1 93
2019-02-05 06:00:00 3.3 8 Noroeste 15 Norte 0 906.8 -0.2 92
2019-02-05 05:00:00 3.3 9 Norte 16 Nordeste 0 906.8 -0.4 90
2019-02-05 04:00:00 3.2 9 Nordeste 15 Nordeste 0 907.1 -0.2 90
2019-02-05 03:00:00 3 2 Oeste 11 Norte 0 907 -0.4 91
2019-02-05 02:00:00 3.1 4 Norte 12 Nordeste 0 907.2 -0.1 91
2019-02-05 01:00:00 3 5 Norte 11 Norte 0 907.3 0 90
2019-02-05 00:00:00 2.9 3 Norte 18 Nordeste 0 907.4 0.2 88
2019-02-04 23:00:00 3.5 5 Norte 9 Norte 0 907.3 0.1 85
2019-02-04 22:00:00 3.7 7 Norte 13 Norte 0 907.3 0.4 83
2019-02-04 21:00:00 3.7 3 Norte 12 Nordeste 0 907.2 0.7 79
2019-02-04 20:00:00 4.6 3 Noroeste 8 Norte 0 907.2 1 73
2019-02-04 19:00:00 5.2 6 Norte 11 Norte 0 906.9 1 62
2019-02-04 18:00:00 6.2 3 Oeste 10 Oeste 0.2 906.5 0.4 50
2019-02-04 17:00:00 6.9 2 Oeste 7 Sudoeste 0.2 906.2 -0.3 45
2019-02-04 16:00:00 8.6 2 Sudoeste 8 Oeste 0.4 905.9 -1.2 34
2019-02-04 15:00:00 8.2 2 Oeste 5 Sudoeste 0.4 906.1 -1 29
2019-02-04 14:00:00 6.9 3 Sur 9 Sudoeste 0.2 906.5 -0.5 30
2019-02-04 13:00:00 4.4 4 Sur 8 Sur 0 907.1 0.7 32
2019-02-04 12:00:00 4.4 4 Sudoeste 8 Sudoeste 0 907.1 1.1 31
2019-02-04 11:00:00 1.2 4 Norte 9 Nordeste 0 907 1.5 38
2019-02-04 10:00:00 -0.7 5 Nordeste 13 Nordeste 0 906.4 1.5 43
2019-02-04 09:00:00 -4.1 6 Norte 12 Norte 0 906 1.2 45
2019-02-04 08:00:00 -3.7 5 Oeste 12 Nordeste 0 905.5 1 42
2019-02-04 07:00:00 -4.4 5 Noroeste 13 Noroeste 0 904.9 -0.3 43
2019-02-04 06:00:00 -3.3 5 Oeste 21 Nordeste 0 904.8 0.7 33
2019-02-04 05:00:00 -1.5 7 Oeste 19 Sudoeste 0 904.5 0.5 27
2019-02-04 04:00:00 -1.9 3 Noroeste 30 Sudoeste 0 905.2 0.8 26
2019-02-04 03:00:00 -0.2 15 Oeste 36 Sudoeste 0 904.1 -0.5 19
2019-02-04 02:00:00 -1.2 16 Oeste 40 Noroeste 0 904 -0.6 27
2019-02-04 01:00:00 -1.2 12 Noroeste 34 Noroeste 0 904.4 -0.2 30
2019-02-04 00:00:00 -1.8 12 Noroeste 50 Norte 0 904.6 0.1 47
2019-02-03 23:00:00 -1.4 13 Noroeste 77 Norte 0 904.6 0.5 45
2019-02-03 22:00:00 -0.5 25 Norte 74 Nordeste 0 904.6 1.6 40
2019-02-03 21:00:00 -0.7 35 Norte 67 Nordeste 0 904.5 0.8 47
2019-02-03 20:00:00 -0.5 37 Norte 72 Nordeste 0 904.1 0.5 31
2019-02-03 19:00:00 -0.7 33 Norte 67 Nordeste 0.2 903 -0.1 37
2019-02-03 18:00:00 -0.8 31 Norte 81 Norte 0 903.7 1.1 41
2019-02-03 17:00:00 -0.4 35 Norte 75 Noroeste 0.4 903.6 1.4 40
2019-02-03 16:00:00 -0.3 33 Norte 70 Noroeste 0.4 903.1 1.6 38
2019-02-03 15:00:00 -0.5 34 Norte 86 Norte 0.2 902.6 1.5 38
2019-02-03 14:00:00 -0.4 28 Noroeste 77 Norte 0.2 902.2 1.3 40
2019-02-03 13:00:00 -0.3 26 Noroeste 78 Noroeste 0.4 901.5 1.1 40
2019-02-03 12:00:00 -1.4 32 Norte 95 Norte 0.4 901.1 0.8 49
2019-02-03 11:00:00 -2.2 33 Norte 87 Norte 0.4 900.9 1 55
2019-02-03 10:00:00 -2.4 26 Noroeste 82 Norte 0 900.4 1.1 56
2019-02-03 09:00:00 -2.5 21 Norte 74 Noroeste 0.2 900.3 1.5 59
2019-02-03 08:00:00 -2.5 22 Norte 72 Noroeste 0 899.9 2.1 57
2019-02-03 07:00:00 -2.3 23 Norte 60 Norte 0 899.3 2.4 55
2019-02-03 06:00:00 -2.2 26 Norte 59 Norte 0.2 898.8 2.4 52
2019-02-03 05:00:00 -2.7 21 Noroeste 81 Norte 0.2 897.8 2.7 61
2019-02-03 04:00:00 -2.6 28 Norte 73 Norte 0.2 896.9 2.7 61
2019-02-03 03:00:00 -2.7 21 Noroeste 66 Norte 0.2 896.4 4.4 70
2019-02-03 02:00:00 -2.5 27 Norte 75 Norte 0.4 895.1 2.8 72
2019-02-03 01:00:00 -2.7 27 Noroeste 86 Norte 0.6 894.2 2.3 85
2019-02-03 00:00:00 -1.7 26 Norte 78 Norte 0.2 892 -0.1 60
2019-02-02 23:00:00 -1.8 30 Norte 75 Norte 0.8 892.3 0.5 64
2019-02-02 22:00:00 -1.6 17 Noroeste 49 Norte 1 891.9 1.4 72
2019-02-02 21:00:00 -2.5 8 Sudeste 41 Noroeste 0.6 892.1 2.2 92
2019-02-02 20:00:00 -1.8 14 Noroeste 40 Norte 0.6 891.8 2.8 75
2019-02-02 19:00:00 -1 17 Noroeste 76 Norte 0.6 890.5 2.9 55
2019-02-02 18:00:00 -1.3 13 Noroeste 63 Norte 1 889.9 3.4 77
2019-02-02 17:00:00 -1.9 17 Oeste 66 Noroeste 1 889 2.9 87
2019-02-02 16:00:00 -1.4 13 Noroeste 37 Norte 1.2 887.6 2 93
2019-02-02 15:00:00 -0.6 15 Oeste 45 Noroeste 1.6 886.5 2.2 93
2019-02-02 14:00:00 -0.1 10 Noroeste 42 Oeste 2.2 886.1 3.1 91
2019-02-02 13:00:00 0.2 15 Oeste 47 Noroeste 2.4 885.6 4.2 91
2019-02-02 12:00:00 1 11 Noroeste 44 Noroeste 0.4 884.3 4.2 85
2019-02-02 11:00:00 0.6 9 Noroeste 23 Oeste 0.4 883 3.7 91
2019-02-02 10:00:00 -0.1 9 Oeste 23 Sudoeste 0.4 881.4 3.3 93
2019-02-02 09:00:00 -0.2 6 Oeste 20 Oeste 0.4 880.1 2.9 93
2019-02-02 08:00:00 0 9 Oeste 23 Oeste 0.8 879.3 2.8 93
2019-02-02 07:00:00 0.1 13 Oeste 36 Noroeste 0.6 878.1 1.6 90
2019-02-02 06:00:00 -0.1 11 Oeste 27 Oeste 0.4 877.2 1 93
2019-02-02 05:00:00 -0.3 6 Oeste 18 Sudoeste 0.8 876.5 0.6 92
2019-02-02 04:00:00 -0.2 8 Sudoeste 21 Oeste 1 876.5 1.2 92
2019-02-02 03:00:00 0 8 Oeste 17 Oeste 0 876.2 1.4 92
2019-02-02 02:00:00 0.2 4 Oeste 10 Sudoeste 0.4 875.9 1.2 91
2019-02-02 01:00:00 0.4 5 Noroeste 9 Noroeste 0 875.3 1.1 87
2019-02-02 00:00:00 0.6 4 Noroeste 9 Norte 0 874.8 0.9 88
2019-02-01 23:00:00 1.2 3 Norte 12 Noroeste 0.2 874.7 1.9 82
2019-02-01 22:00:00 1.4 4 Norte 14 Oeste 1 874.2 1.7 82
2019-02-01 21:00:00 1.2 7 Norte 33 Sudoeste 1.8 873.9 1.6 88
2019-02-01 20:00:00 2.6 16 Sudeste 28 Sur 0 872.8 0.3 79
2019-02-01 19:00:00 2.9 9 Sudeste 36 Sur 0 872.5 -0.7 81
2019-02-01 18:00:00 4.2 10 Sur 44 Sur 0.2 872.3 -1.3 70
2019-02-01 17:00:00 4.6 12 Sur 30 Sudeste 0 872.5 -1.2 63
2019-02-01 16:00:00 4.6 6 Sur 33 Sur 0 873.2 -1.2 66
2019-02-01 15:00:00 5 21 Sur 37 Sur 0 873.6 -1.6 62
2019-02-01 14:00:00 6.8 15 Sur 29 Sur 0 873.7 -1.3 54
2019-02-01 13:00:00 7.6 7 Sudeste 21 Sur 0 874.4 -0.6 63
2019-02-01 12:00:00 4.9 9 Sudeste 15 Sudeste 0 875.2 0.7 80
2019-02-01 11:00:00 4.1 2 Norte 9 Sudoeste 0 875 0.5 84
2019-02-01 10:00:00 3.5 5 Sudoeste 13 Oeste 0 875 0.7 87
2019-02-01 09:00:00 3.5 3 Sudoeste 11 Sudoeste 0 874.5 -0.4 89
2019-02-01 08:00:00 3.7 4 Sudoeste 16 Oeste 0 874.5 -1.1 87
2019-02-01 07:00:00 3.3 3 Norte 13 Norte 0 874.3 -2 89
2019-02-01 06:00:00 3.5 7 Norte 18 Norte 0 874.9 -2 89
2019-02-01 05:00:00 3.5 8 Norte 19 Nordeste 1 875.6 -2 91
2019-02-01 04:00:00 3.8 8 Norte 21 Norte 1.8 876.3 -1.3 91
2019-02-01 03:00:00 4.7 13 Norte 26 Norte 4 876.9 -1.1 84
2019-02-01 02:00:00 5.4 6 Oeste 23 Sudoeste 6.8 877.6 -1.3 91
2019-02-01 01:00:00 6.1 5 Sudoeste 19 Sudoeste 3.6 877.6 -1.7 91
2019-02-01 00:00:00 5.8 3 Oeste 19 Sudoeste 0.6 878 -1.7 92
2019-01-31 23:00:00 6 5 Sudoeste 19 Sudoeste 1.8 878.9 -1.3 93
2019-01-31 22:00:00 5.8 3 Noroeste 21 Oeste 1.6 879.3 -1 93
2019-01-31 21:00:00 5.8 6 Norte 12 Norte 2 879.7 -0.9 93
2019-01-31 20:00:00 5.5 3 Nordeste 13 Norte 0.8 880.2 -1.1 94
2019-01-31 19:00:00 4.2 4 Norte 17 Nordeste 0.8 880.3 -1.3 94
2019-01-31 18:00:00 3.9 13 Norte 21 Nordeste 0 880.6 -1.5 92
2019-01-31 17:00:00 3.7 13 Nordeste 20 Norte 0 881.3 -0.7 92
2019-01-31 16:00:00 3.4 3 Norte 8 Noroeste 0.6 881.6 -0.8 93
2019-01-31 15:00:00 2.9 3 Oeste 9 Oeste 0.4 882.1 -0.6 93
2019-01-31 14:00:00 3.1 4 Sur 9 Oeste 0.6 882 -0.4 91
2019-01-31 13:00:00 3.6 2 Sudoeste 6 Sudoeste 0.8 882.4 0 90
2019-01-31 12:00:00 2.5 3 Oeste 7 Oeste 1.2 882.7 0.9 91
2019-01-31 11:00:00 1.7 2 Noroeste 14 Norte 2 882.4 0.7 94
2019-01-31 10:00:00 0.8 3 Norte 9 Norte 2.8 882.4 0.3 95
2019-01-31 09:00:00 0.4 3 Norte 8 Sudoeste 3.2 881.8 -0.6 95
2019-01-31 08:00:00 0.3 2 Este 10 Nordeste 2.2 881.7 -1.3 95
2019-01-31 07:00:00 0.2 4 Noroeste 6 Oeste 0.8 882.1 -1.9 95
2019-01-31 06:00:00 0.1 0 Calma 9 Nordeste 1 882.4 -2 95
2019-01-31 05:00:00 -0.2 4 Norte 7 Nordeste 1 883 -2 95
2019-01-31 04:00:00 -0.4 0 Calma 4 Sur 0.8 884 -1.9 95
2019-01-31 03:00:00 -0.4 2 Nordeste 6 Norte 0.4 884.4 -1.9 94
2019-01-31 02:00:00 -0.5 2 Nordeste 8 Norte 0.4 885 -1.9 93
2019-01-31 01:00:00 -0.4 2 Norte 10 Sudeste 0 885.9 -1.4 91
2019-01-31 00:00:00 0 4 Nordeste 13 Nordeste 0 886.3 -1.6 89
2019-01-30 23:00:00 0.1 8 Norte 14 Nordeste 0 886.9 -1.5 88
2019-01-30 22:00:00 0.1 4 Noroeste 13 Norte 0 887.3 -1.2 86
2019-01-30 21:00:00 0 7 Norte 13 Nordeste 0 887.9 -0.7 86
2019-01-30 20:00:00 -0.1 8 Nordeste 15 Nordeste 0 888.4 -1.1 84
2019-01-30 19:00:00 0.2 9 Nordeste 19 Nordeste 0 888.5 -1.5 82
2019-01-30 18:00:00 1.3 7 Noroeste 16 Norte 0 888.6 -1.7 69
2019-01-30 17:00:00 2.6 0 Calma 8 Nordeste 0 889.5 -1.1 74
2019-01-30 16:00:00 1.3 6 Norte 25 Sudoeste 0 890 -1.3 80
2019-01-30 15:00:00 1.2 6 Oeste 26 Oeste 0.6 890.3 -1.1 84
2019-01-30 14:00:00 1.9 6 Sudoeste 34 Sudoeste 1.2 890.6 -0.5 82
2019-01-30 13:00:00 1.3 11 Sudoeste 27 Sudoeste 1.4 891.3 0.5 85
2019-01-30 12:00:00 0.8 6 Oeste 22 Sudoeste 0.6 891.4 0.8 86
2019-01-30 11:00:00 -0.2 6 Sudoeste 21 Sudoeste 0.6 891.1 1 89
2019-01-30 10:00:00 -0.5 3 Oeste 17 Sudoeste -- 890.8 0.6 91
2019-01-30 09:00:00 -1 4 Este 21 Sudoeste 0.8 890.6 0.1 92
2019-01-30 08:00:00 -0.9 11 Oeste 24 Oeste 0 890.1 -0.3 90
2019-01-30 07:00:00 -1.1 7 Oeste 17 Oeste 0.4 890.2 -0.3 90
2019-01-30 06:00:00 -0.9 7 Oeste 22 Noroeste 0.6 890.5 0.2 91
2019-01-30 05:00:00 -1 9 Oeste 24 Noroeste 0 890.4 0.3 90
2019-01-30 04:00:00 -0.3 11 Oeste 34 Oeste 0.2 890.5 0.9 80
2019-01-30 03:00:00 -0.7 9 Oeste 23 Sudoeste 0.2 890.3 1 90
2019-01-30 02:00:00 -0.7 5 Nordeste 24 Oeste 0 890.1 0.7 91
2019-01-30 01:00:00 0.3 13 Oeste 37 Oeste 0.2 889.6 0.6 71
2019-01-30 00:00:00 1 12 Noroeste 44 Noroeste 0.2 889.3 0.4 67
2019-01-29 23:00:00 1 7 Noroeste 33 Norte -- 889.4 0.7 78
2019-01-29 22:00:00 0.8 10 Oeste 28 Noroeste 1.2 889 0.6 88
2019-01-29 21:00:00 0.6 10 Oeste 22 Oeste -- 888.9 0.6 92
2019-01-29 20:00:00 0.9 5 Noroeste 15 Noroeste 2 888.7 -0.3 92
2019-01-29 19:00:00 0.6 4 Norte 14 Oeste 0.8 888.4 -0.6 94
2019-01-29 18:00:00 0.4 5 Noroeste 8 Oeste 0.4 888.3 -1.2 93
2019-01-29 17:00:00 0.8 3 Noroeste 6 Noroeste 0.4 889 -1.4 92
2019-01-29 16:00:00 0.5 4 Nordeste 6 Nordeste 1 889 -2.5 93
2019-01-29 15:00:00 0.9 2 Sudoeste 6 Nordeste 1 889.5 -3 91
2019-01-29 14:00:00 1.3 4 Norte 7 Norte 0.6 890.4 -2.7 91
2019-01-29 13:00:00 1.7 0 Calma 3 Norte 0.4 891.5 -1.6 89
2019-01-29 12:00:00 1.5 0 Calma 4 Oeste 0.4 892.5 -1 89
2019-01-29 11:00:00 1.2 0 Calma 6 Norte 0 893.1 -0.3 87
2019-01-29 10:00:00 0.7 4 Nordeste 6 Nordeste 0 893.1 -0.1 88
2019-01-29 09:00:00 0.4 2 Norte 10 Norte 0 893.5 -0.1 88
2019-01-29 08:00:00 0.4 4 Norte 11 Noroeste 0 893.4 -0.3 85
2019-01-29 07:00:00 0.5 5 Nordeste 22 Noroeste 0 893.2 -1.2 81
2019-01-29 06:00:00 0.7 4 Oeste 17 Oeste 0 893.6 -0.9 81
2019-01-29 05:00:00 -0.1 4 Sudeste 11 Nordeste 0 893.7 -1.3 85
2019-01-29 04:00:00 0.5 11 Nordeste 36 Noroeste 0 894.4 -0.9 85
2019-01-29 03:00:00 2 14 Noroeste 37 Noroeste 0 894.5 -0.6 69
2019-01-29 02:00:00 1.3 15 Noroeste 40 Noroeste 0 895 -0.2 78
2019-01-29 01:00:00 1.2 15 Oeste 35 Oeste 0.2 895.3 -0.2 80
2019-01-29 00:00:00 1.1 9 Oeste 44 Noroeste 0 895.1 0 85
2019-01-28 23:00:00 2.3 21 Noroeste 50 Oeste 0.4 895.2 0.5 69
2019-01-28 22:00:00 0.8 13 Oeste 32 Oeste 1.4 895.5 1.2 91
2019-01-28 21:00:00 1.5 9 Noroeste 35 Noroeste 0.2 895.1 1.7 84
2019-01-28 20:00:00 1.7 12 Noroeste 35 Noroeste 1.2 894.7 1.9 82
2019-01-28 19:00:00 1.4 6 Oeste 41 Sudoeste 1.6 894.3 2.3 87
2019-01-28 18:00:00 2.4 13 Noroeste 34 Norte 3.4 893.4 1.8 72
2019-01-28 17:00:00 1.7 5 Norte 46 Norte 1.4 892.8 1.4 86
2019-01-28 16:00:00 3.6 19 Norte 51 Norte 1 892 0.1 67
2019-01-28 15:00:00 4.3 15 Noroeste 43 Noroeste 1 891.6 0 69
2019-01-28 14:00:00 3.8 16 Noroeste 35 Norte 1.8 891.4 0.3 69
2019-01-28 13:00:00 3.5 15 Noroeste 41 Oeste 2.8 891.9 1.6 75
2019-01-28 12:00:00 2.9 8 Oeste 55 Noroeste 2.8 891.6 1.7 78
2019-01-28 11:00:00 3.1 16 Noroeste 56 Norte 2.4 891.1 0.5 75
2019-01-28 10:00:00 3.9 16 Norte 50 Oeste 0 890.3 -1.4 67
2019-01-28 09:00:00 -0.5 6 Norte 14 Sudoeste 0.8 889.9 -2.5 94
2019-01-28 08:00:00 -0.5 4 Sudoeste 15 Oeste 0.8 890.6 -2.5 94
2019-01-28 07:00:00 -0.6 2 Norte 15 Sudoeste 0.6 891.7 -2.2 94
2019-01-28 06:00:00 -0.5 2 Sudoeste 12 Sur 0.6 892.4 -2.1 94
2019-01-28 05:00:00 -0.5 5 Sur 16 Sudoeste 0.8 893.1 -1.6 94
2019-01-28 04:00:00 -0.3 8 Oeste 17 Oeste 0.6 893.9 -1.3 92
2019-01-28 03:00:00 -0.3 10 Oeste 20 Oeste 0 894.5 -0.3 89
2019-01-28 02:00:00 0 10 Noroeste 33 Norte 0 894.7 -0.7 79
2019-01-28 01:00:00 0.1 10 Noroeste 26 Oeste 0.8 895.2 0.3 86
2019-01-28 00:00:00 0.8 12 Noroeste 40 Norte 0.2 894.8 -0.2 80
2019-01-27 23:00:00 0.2 12 Noroeste 33 Oeste 0.8 895.4 0.6 91
2019-01-27 22:00:00 0.6 12 Oeste 28 Oeste 0.2 894.9 0.7 85
2019-01-27 21:00:00 0.2 14 Oeste 36 Sudoeste 0.2 895 1 86
2019-01-27 20:00:00 0.8 16 Noroeste 39 Norte 0 894.8 1.9 72
2019-01-27 19:00:00 1.5 9 Noroeste 45 Noroeste 0.2 894.2 1.4 67
2019-01-27 18:00:00 0.5 9 Oeste 31 Noroeste 0.4 894 1.7 90
2019-01-27 17:00:00 2.1 11 Noroeste 48 Noroeste 0.2 892.9 0.1 70
2019-01-27 16:00:00 2.3 18 Noroeste 44 Oeste 0.2 892.8 -0.8 77
2019-01-27 15:00:00 1.4 8 Oeste 28 Oeste 1 892.3 -0.6 87
2019-01-27 14:00:00 1 7 Oeste 35 Sudoeste 1 892.8 0.4 89
2019-01-27 13:00:00 1.5 9 Oeste 27 Oeste 0.4 893.6 1.1 87
2019-01-27 12:00:00 3.7 9 Sudoeste 26 Sudoeste 0 892.9 0.5 77
2019-01-27 11:00:00 2.2 10 Noroeste 32 Noroeste 0 892.4 0.6 85
2019-01-27 10:00:00 4.4 9 Norte 38 Oeste 0 892.5 0.8 58
2019-01-27 09:00:00 3.1 7 Noroeste 26 Oeste 0 892.4 -0.1 80
2019-01-27 08:00:00 4 8 Noroeste 26 Oeste 0 891.8 -1 80
2019-01-27 07:00:00 5.6 9 Norte 31 Noroeste 0 891.7 -2.2 68
2019-01-27 06:00:00 5.9 9 Noroeste 22 Noroeste 0 892.5 -2 71
2019-01-27 05:00:00 5.3 5 Oeste 17 Noroeste 0 892.8 -2.1 68
2019-01-27 04:00:00 3.4 6 Norte 15 Norte 0 893.9 -1.5 56
2019-01-27 03:00:00 3.1 7 Norte 10 Norte 0 894.5 -1.4 54
2019-01-27 02:00:00 2.7 2 Noroeste 15 Nordeste 0 894.9 -1.5 58
2019-01-27 01:00:00 3 6 Norte 12 Nordeste 0 895.4 -1.2 53
2019-01-27 00:00:00 2.4 2 Norte 14 Nordeste 0 895.9 -1 60
2019-01-26 23:00:00 2.7 3 Noroeste 13 Norte 0 896.4 -1.1 66
2019-01-26 22:00:00 3.4 4 Norte 10 Nordeste 0 896.6 -1.2 70
2019-01-26 21:00:00 4.5 7 Norte 14 Norte 0 896.9 -1.3 65
2019-01-26 20:00:00 4.6 3 Norte 15 Norte 0 897.5 -1.1 79
2019-01-26 19:00:00 6.3 7 Norte 14 Nordeste 0 897.8 -1 73
2019-01-26 18:00:00 8.3 7 Norte 12 Nordeste 0 898.2 -0.9 68
2019-01-26 17:00:00 12.4 6 Sudoeste 13 Sudoeste 0 898.6 -1 53
2019-01-26 16:00:00 12.3 8 Sur 13 Sudoeste 0 898.8 -1.8 50
2019-01-26 15:00:00 12.3 7 Sur 14 Sur 0 899.1 -2.2 47
2019-01-26 14:00:00 11.2 6 Sur 11 Sur 0 899.6 -1.5 47
2019-01-26 13:00:00 9.9 4 Sur 10 Sur 0 900.6 -0.5 51
2019-01-26 12:00:00 8.2 3 Sudeste 7 Sudeste 0 901.3 0.1 56
2019-01-26 11:00:00 5.6 3 Este 12 Nordeste 0 901.1 0.3 65
2019-01-26 10:00:00 3.6 6 Norte 11 Norte 0 901.1 0.5 68
2019-01-26 09:00:00 1.2 5 Noroeste 10 Norte 0 901.2 0.3 86
2019-01-26 08:00:00 1.5 5 Norte 23 Nordeste 0 900.8 0 80
2019-01-26 07:00:00 1.8 5 Norte 14 Norte 0 900.6 -0.3 78
2019-01-26 06:00:00 3 6 Norte 17 Nordeste 0 900.9 -0.3 75
2019-01-26 05:00:00 3.5 4 Norte 12 Sur 0 900.8 -0.3 74
2019-01-26 04:00:00 6 7 Noroeste 26 Oeste 0 900.9 0 62
2019-01-26 03:00:00 6.2 7 Noroeste 23 Noroeste 0 901.2 0.9 62
2019-01-26 02:00:00 4.4 7 Norte 17 Nordeste 0 901.1 0.8 72
2019-01-26 01:00:00 5.5 9 Oeste 20 Noroeste 0 900.9 1 69
2019-01-26 00:00:00 5 8 Oeste 19 Sudoeste 0 900.3 0.9 72
2019-01-25 23:00:00 5.5 8 Oeste 33 Sudoeste 0 900.3 1.5 69
2019-01-25 22:00:00 6 7 Oeste 35 Sudoeste 0 899.9 1.8 68
2019-01-25 21:00:00 5.6 5 Nordeste 23 Sudoeste 0 899.4 1.3 67
2019-01-25 20:00:00 7.3 14 Sudoeste 33 Sudoeste 0 898.8 1.1 59
2019-01-25 19:00:00 8 15 Norte 45 Sudoeste 0 898.1 0.9 55
2019-01-25 18:00:00 8.1 12 Sur 44 Norte 0 898.1 1.1 56
2019-01-25 17:00:00 9.1 17 Norte 54 Noroeste 0 897.7 0.4 50
2019-01-25 16:00:00 9.2 27 Norte 66 Norte 0 897.2 -0.1 50
2019-01-25 15:00:00 9.3 24 Norte 55 Norte 0 897 -0.9 50
2019-01-25 14:00:00 9.8 19 Norte 63 Norte 0 897.3 -0.2 49
2019-01-25 13:00:00 9.4 30 Norte 64 Nordeste 0 897.3 0 50
2019-01-25 12:00:00 8.1 23 Norte 54 Norte 0.2 897.9 1.5 59
2019-01-25 11:00:00 6.9 16 Norte 36 Nordeste 0 897.5 1.8 66
2019-01-25 10:00:00 6.6 9 Norte 35 Norte 0 897.3 2 63
2019-01-25 09:00:00 6 11 Norte 36 Norte 0 896.4 1.4 63
2019-01-25 08:00:00 5.1 9 Norte 33 Norte 0 895.7 1.7 71
2019-01-25 07:00:00 5 15 Nordeste 40 Norte 0 895.3 1.4 73
2019-01-25 06:00:00 5.9 15 Noroeste 41 Oeste 0 895 1 67
2019-01-25 05:00:00 6.7 14 Norte 60 Norte 0.2 894 0 56
2019-01-25 04:00:00 6.6 24 Norte 75 Norte 0.4 893.9 -0.1 55
2019-01-25 03:00:00 5.7 32 Norte 79 Norte 0.2 894 0 55
2019-01-25 02:00:00 5.3 24 Norte 76 Norte 0.4 894 -0.1 55
2019-01-25 01:00:00 4.9 38 Norte 81 Norte 0.4 894 0.3 55
2019-01-25 00:00:00 3.9 42 Norte 73 Norte 0 894 0.4 56
2019-01-24 23:00:00 3.4 21 Norte 72 Nordeste 0 894.1 0.8 52
2019-01-24 22:00:00 2.5 32 Norte 67 Nordeste 0 893.7 0.8 51
2019-01-24 21:00:00 2.8 26 Norte 64 Nordeste 0 893.6 1.1 47
2019-01-24 20:00:00 3.2 32 Norte 68 Norte 0 893.3 1.2 43
2019-01-24 19:00:00 2.4 28 Norte 67 Nordeste 0 892.9 1.1 40
2019-01-24 18:00:00 1.9 24 Norte 66 Norte 0 892.5 0.7 39
2019-01-24 17:00:00 1.8 33 Norte 67 Norte 0 892.1 0.5 32
2019-01-24 16:00:00 2 20 Norte 62 Noroeste 0 891.8 0.1 31
2019-01-24 15:00:00 1.6 28 Norte 64 Norte 0 891.8 0.1 29
2019-01-24 14:00:00 1.9 27 Norte 59 Norte 0 891.6 0.3 30
2019-01-24 13:00:00 1.5 25 Norte 63 Norte 0 891.7 0.9 37
2019-01-24 12:00:00 1.1 24 Norte 57 Norte 0 891.7 1.3 36
2019-01-24 11:00:00 0.8 15 Norte 51 Norte 0 891.3 1.9 37
2019-01-24 10:00:00 -0.8 19 Norte 45 Norte 0 890.8 2.6 33
2019-01-24 09:00:00 -1.8 15 Norte 47 Norte 0 890.4 2.6 35
2019-01-24 08:00:00 -2 20 Norte 60 Norte 0.2 889.4 1.9 38
2019-01-24 07:00:00 -1.5 18 Norte 59 Norte 0.2 888.2 1.2 41
2019-01-24 06:00:00 -2.2 15 Norte 53 Norte 0.2 887.8 1.7 50
2019-01-24 05:00:00 -2.3 14 Norte 60 Norte 0.8 887.5 1.7 74
2019-01-24 04:00:00 -2 10 Noroeste 36 Norte 1 887 1.6 83
2019-01-24 03:00:00 -1.7 8 Noroeste 35 Norte 1 886.1 0.6 85
2019-01-24 02:00:00 -1.2 10 Norte 35 Norte 1 885.8 1.1 86
2019-01-24 01:00:00 -1.3 12 Noroeste 50 Nordeste 1 885.4 1.1 87
2019-01-24 00:00:00 -0.8 11 Noroeste 46 Norte 1.2 885.5 2.1 88